Latest Weather Observations for Westmere

IDV60801

Issued at 7:12 am EDT Friday 22 October 2021 (issued every 10 minutes, with the page automatically refreshed every 10 minutes)

About weather observations | Map of weather stations | Latest weather observations for VIC | Other Formats
Station Details ID: 089112 Name: WESTMERE Lat: -37.71 Lon: 142.94 Height: 226.0 m
Data from the previous 72 hours. | See also: Recent months at Westmere
Date/Time
EDT
Temp
°C
App
Temp
°C
Dew
Point
°C
Rel
Hum
%
Delta-T
°C
Wind Press
QNH
hPa
Press
MSL
hPa
Rain since
9am
mm
Dir  Spd
km/h
Gust
km/h
Spd
kts
Gust
kts
22/07:00am 11.1 11.5 11.1 100 0.0 CALM 0 0 0 0 1014.5 1014.5 0.2
22/06:30am 10.8 11.1 10.8 100 0.0 CALM 0 0 0 0 1014.6 1014.6 0.2
22/06:00am 10.3 10.4 10.3 100 0.0 CALM 0 0 0 0 1014.4 1014.4 0.2
22/05:30am 9.7 9.7 9.7 100 0.0 CALM 0 0 0 0 1014.3 1014.3 0.2
22/05:00am 8.7 8.4 8.7 100 0.0 CALM 0 0 0 0 1014.0 1014.0 0.2
22/04:30am 9.3 9.2 9.3 100 0.0 CALM 0 0 0 0 1014.2 1014.2 0.2
22/04:00am 10.1 10.2 10.1 100 0.0 CALM 0 0 0 0 1014.3 1014.3 0.2
22/03:30am 10.4 10.6 10.4 100 0.0 CALM 0 0 0 0 1014.5 1014.5 0.2
22/03:00am 10.8 11.1 10.8 100 0.0 CALM 0 2 0 1 1014.5 1014.5 0.2
22/02:30am 10.8 10.3 10.8 100 0.0 NW 4 6 2 3 1014.6 1014.6 0.2
22/02:00am 10.6 10.1 10.6 100 0.0 NW 4 6 2 3 1015.0 1015.0 0.2
22/01:30am 10.0 10.1 10.0 100 0.0 CALM 0 0 0 0 1015.2 1015.2 0.2
22/01:00am 10.4 10.6 10.4 100 0.0 CALM 0 0 0 0 1015.3 1015.3 0.2
22/12:30am 11.9 11.4 11.9 100 0.0 WSW 6 7 3 4 1015.5 1015.5 0.2
22/12:00am 11.9 11.2 11.9 100 0.0 SW 7 9 4 5 1015.6 1015.6 0.2
 
Date/Time
EDT
Temp
°C
App
Temp
°C
Dew
Point
°C
Rel
Hum
%
Delta-T
°C
Wind Press
QNH
hPa
Press
MSL
hPa
Rain since
9am
mm
Dir  Spd
km/h
Gust
km/h
Spd
kts
Gust
kts
21/11:30pm 11.7 11.1 11.7 100 0.0 WSW 6 7 3 4 1015.6 1015.6 0.2
21/11:00pm 11.8 11.2 11.8 100 0.0 SW 6 6 3 3 1015.6 1015.6 0.2
21/10:30pm 12.3 11.9 12.3 100 0.0 SSW 6 7 3 4 1015.2 1015.2 0.2
21/10:00pm 13.2 12.9 13.2 100 0.0 SSW 7 9 4 5 1014.9 1014.9 0.2
21/09:30pm 13.4 13.3 13.4 100 0.0 S 6 9 3 5 1014.8 1014.8 0.2
21/09:00pm 13.4 12.8 13.4 100 0.0 S 9 15 5 8 1014.5 1014.5 0.2
21/08:30pm 13.8 11.8 13.8 100 0.0 SSW 17 24 9 13 1013.9 1013.9 0.2
21/08:00pm 14.4 12.2 14.4 100 0.0 SSW 19 26 10 14 1013.7 1013.7 0.2
21/07:30pm 14.8 12.6 14.8 100 0.0 S 20 28 11 15 1013.2 1013.1 0.2
21/07:00pm 14.9 12.3 14.9 100 0.0 SSW 22 37 12 20 1013.0 1012.9 0.2
21/06:30pm 19.3 19.2 15.0 76 2.5 NE 9 11 5 6 1011.6 1011.6 0.0
21/06:00pm 20.4 19.8 14.7 70 3.4 NNE 11 13 6 7 1011.3 1011.3 0.0
21/05:30pm 20.7 19.9 13.9 65 4.0 NNE 11 15 6 8 1011.2 1011.2 0.0
21/05:00pm 20.9 19.2 13.6 63 4.2 NNE 15 22 8 12 1011.1 1011.1 0.0
21/04:30pm 20.8 18.1 13.5 63 4.2 NNE 20 32 11 17 1011.3 1011.3 0.0
21/04:00pm 23.2 19.3 13.4 54 5.7 NNE 26 35 14 19 1011.4 1011.4 0.0
21/03:30pm 22.3 18.8 13.4 57 5.2 NNE 24 32 13 17 1011.6 1011.6 0.0
21/03:00pm 21.9 18.9 13.8 60 4.7 N 22 30 12 16 1011.7 1011.7 0.0
21/02:30pm 23.9 21.7 14.9 57 5.4 NNE 20 32 11 17 1012.0 1012.0 0.0
21/02:00pm 22.3 17.9 12.8 55 5.5 N 28 37 15 20 1012.1 1012.1 0.0
21/01:30pm 22.6 18.5 13.7 57 5.2 N 28 37 15 20 1012.1 1012.1 0.0
21/01:00pm 21.1 17.3 12.5 58 4.9 NNE 24 35 13 19 1012.3 1012.3 0.0
21/12:30pm 21.7 16.8 12.5 56 5.3 N 30 41 16 22 1012.2 1012.2 0.0
21/12:00pm 21.8 17.1 13.2 58 5.0 NNE 30 41 16 22 1012.5 1012.4 0.0
21/11:30am 21.0 15.9 13.2 61 4.5 N 32 46 17 25 1012.5 1012.4 0.0
21/11:00am 20.4 15.0 12.9 62 4.3 N 33 43 18 23 1012.8 1012.7 0.0
21/10:30am 19.7 14.1 12.2 62 4.2 N 33 43 18 23 1012.8 1012.7 0.0
21/10:00am 18.8 14.0 11.6 63 4.0 N 28 43 15 23 1012.8 1012.7 0.0
21/09:30am 16.8 12.7 11.3 70 3.0 NNE 24 33 13 18 1012.9 1012.8 0.0
21/09:00am 16.4 13.0 11.3 72 2.8 N 20 32 11 17 1012.9 1012.8 0.0
21/08:30am 16.1 11.1 11.1 72 2.7 NNE 28 37 15 20 1012.9 1012.8 0.0
21/08:00am 16.0 11.4 11.0 72 2.7 N 26 33 14 18 1012.7 1012.6 0.0
21/07:30am 16.0 12.0 10.3 69 3.0 N 22 32 12 17 1012.7 1012.6 0.0
21/07:00am 16.3 11.5 10.2 67 3.3 N 26 33 14 18 1012.6 1012.5 0.0
21/06:30am 15.9 12.4 10.2 69 3.0 NNE 19 30 10 16 1012.3 1012.3 0.0
21/06:00am 15.3 12.6 10.5 73 2.6 NNE 15 20 8 11 1012.1 1012.1 0.0
21/05:30am 15.2 12.6 10.8 75 2.4 N 15 20 8 11 1011.9 1011.9 0.0
21/05:00am 16.4 11.9 10.0 66 3.4 NNE 24 37 13 20 1011.7 1011.7 0.0
21/04:30am 16.3 13.5 9.9 66 3.4 NNE 15 20 8 11 1011.7 1011.7 0.0
21/04:00am 16.5 12.9 9.9 65 3.5 NNE 19 28 10 15 1011.6 1011.6 0.0
21/03:30am 15.2 12.5 10.4 73 2.6 NNE 15 22 8 12 1011.7 1011.7 0.0
21/03:00am 13.1 12.6 10.8 86 1.2 NE 4 6 2 3 1012.2 1012.2 0.0
21/02:30am 12.3 11.5 10.9 91 0.7 NNE 6 6 3 3 1012.5 1012.4 0.0
21/02:00am 13.0 11.9 10.7 86 1.2 NNE 7 11 4 6 1012.7 1012.6 0.0
21/01:30am 13.3 11.5 10.7 84 1.4 NE 11 13 6 7 1012.9 1012.8 0.0
21/01:00am 14.3 12.0 10.3 77 2.1 NE 13 19 7 10 1013.0 1012.9 0.0
21/12:30am 13.8 11.2 10.6 81 1.7 NE 15 19 8 10 1013.2 1013.1 0.0
21/12:00am 13.6 11.7 10.6 82 1.6 NE 11 15 6 8 1013.3 1013.2 0.0
 
Date/Time
EDT
Temp
°C
App
Temp
°C
Dew
Point
°C
Rel
Hum
%
Delta-T
°C
Wind Press
QNH
hPa
Press
MSL
hPa
Rain since
9am
mm
Dir  Spd
km/h
Gust
km/h
Spd
kts
Gust
kts
20/11:30pm 12.9 10.7 10.8 87 1.1 ENE 13 17 7 9 1013.6 1013.6 0.0
20/11:00pm 12.5 11.4 10.6 88 1.0 ENE 7 9 4 5 1014.2 1014.2 0.0
20/10:30pm 12.9 11.8 10.6 86 1.2 ENE 7 9 4 5 1014.2 1014.2 0.0
20/10:00pm 13.2 11.3 10.6 84 1.4 NE 11 11 6 6 1014.3 1014.3 0.0
20/09:30pm 13.7 12.2 10.5 81 1.7 NE 9 11 5 6 1014.4 1014.4 0.0
20/09:00pm 13.9 12.0 10.5 80 1.8 NE 11 15 6 8 1014.5 1014.5 0.0
20/08:30pm 14.4 12.1 10.4 77 2.1 NE 13 15 7 8 1014.4 1014.4 0.0
20/08:00pm 14.9 12.6 10.5 75 2.3 NE 13 15 7 8 1014.5 1014.5 0.0
20/07:30pm 16.6 13.9 10.2 66 3.4 NE 15 19 8 10 1014.5 1014.5 0.0
20/07:00pm 17.9 15.1 10.0 60 4.2 NE 15 20 8 11 1014.2 1014.2 0.0
20/06:30pm 18.7 16.0 10.3 58 4.5 NE 15 22 8 12 1014.2 1014.2 0.0
20/06:00pm 19.6 16.7 9.8 53 5.3 NE 15 24 8 13 1014.1 1014.1 0.0
20/05:30pm 20.4 16.8 9.9 51 5.7 NE 19 24 10 13 1014.3 1014.3 0.0
20/05:00pm 20.9 17.8 10.4 51 5.8 NE 17 24 9 13 1014.4 1014.4 0.0
20/04:30pm 21.1 18.0 10.3 50 5.9 NE 17 26 9 14 1014.8 1014.8 0.0
20/04:00pm 21.3 18.5 9.9 48 6.2 NNE 15 22 8 12 1015.2 1015.2 0.0
20/03:30pm 21.2 17.9 9.4 47 6.4 NNE 17 22 9 12 1015.6 1015.6 0.0
20/03:00pm 21.1 17.6 10.9 52 5.7 NE 20 32 11 17 1016.1 1016.1 0.0
20/02:30pm 20.9 17.8 10.4 51 5.8 NNE 17 26 9 14 1016.5 1016.5 0.0
20/02:00pm 20.8 17.5 10.9 53 5.5 NNE 19 28 10 15 1016.9 1016.9 0.0
20/01:30pm 20.6 17.0 9.8 50 5.9 NNE 19 30 10 16 1017.4 1017.4 0.0
20/01:00pm 19.8 16.0 9.7 52 5.4 NNE 20 30 11 16 1017.8 1017.8 0.0
20/12:30pm 19.3 15.3 9.2 52 5.4 N 20 30 11 16 1018.7 1018.7 0.0
20/12:00pm 19.2 16.5 10.2 56 4.9 NNE 15 22 8 12 1018.8 1018.8 0.0
20/11:30am 18.1 14.8 9.7 58 4.5 NE 17 22 9 12 1019.1 1019.1 0.0
20/11:00am 17.1 14.6 10.9 67 3.4 NE 15 19 8 10 1019.4 1019.4 0.0
20/10:30am 15.9 13.3 10.7 71 2.8 ENE 15 20 8 11 1019.6 1019.6 0.0
20/10:00am 14.5 12.2 11.8 84 1.5 ENE 15 22 8 12 1019.7 1019.7 0.0
20/09:30am 12.5 9.7 11.2 92 0.7 ENE 17 22 9 12 1020.0 1020.0 0.0
20/09:00am 11.3 8.9 11.3 100 0.0 E 15 22 8 12 1020.2 1020.2 0.0
20/08:30am 9.9 7.1 9.9 100 0.0 E 15 24 8 13 1020.5 1020.5 0.0
20/08:00am 8.6 6.6 8.6 100 0.0 E 9 13 5 7 1020.7 1020.7 0.0
20/07:30am 6.5 4.6 6.5 100 0.0 E 6 7 3 4 1021.1 1021.2 0.0
20/07:00am 4.4 2.0 4.4 100 0.0 E 6 7 3 4 1021.2 1021.3 0.0
20/06:30am 4.0 1.0 4.0 100 0.0 E 9 9 5 5 1021.0 1021.1 0.0
20/06:00am 4.6 2.6 4.6 100 0.0 ENE 4 6 2 3 1021.1 1021.2 0.0
20/05:30am 5.8 3.1 5.8 100 0.0 ENE 9 9 5 5 1020.8 1020.8 0.0
20/05:00am 6.3 3.0 6.3 100 0.0 E 13 19 7 10 1020.4 1020.4 0.0
20/04:30am 5.2 2.0 5.2 100 0.0 E 11 15 6 8 1020.9 1020.9 0.0
20/04:00am 5.5 3.3 5.5 100 0.0 E 6 9 3 5 1021.6 1021.7 0.0
20/03:30am 6.3 3.7 6.3 100 0.0 ESE 9 11 5 6 1021.3 1021.4 0.0
20/03:00am 7.5 4.8 7.5 100 0.0 E 11 15 6 8 1021.3 1021.4 0.0
20/02:30am 7.5 4.8 7.5 100 0.0 E 11 13 6 7 1021.9 1021.9 0.0
20/02:00am 7.1 4.7 7.1 100 0.0 ESE 9 13 5 7 1022.4 1022.4 0.0
20/01:30am 8.5 6.1 8.5 100 0.0 ESE 11 15 6 8 1022.9 1022.9 0.0
20/01:00am 8.8 7.4 8.8 100 0.0 SE 6 9 3 5 1023.4 1023.4 0.0
20/12:30am 8.2 6.5 8.2 100 0.0 SE 7 7 4 4 1023.9 1023.9 0.0
20/12:00am 8.6 7.0 8.6 100 0.0 SSE 7 9 4 5 1023.7 1023.7 0.0
 
Date/Time
EDT
Temp
°C
App
Temp
°C
Dew
Point
°C
Rel
Hum
%
Delta-T
°C
Wind Press
QNH
hPa
Press
MSL
hPa
Rain since
9am
mm
Dir  Spd
km/h
Gust
km/h
Spd
kts
Gust
kts
19/11:30pm 8.8 6.8 8.8 100 0.0 E 9 13 5 7 1023.4 1023.4 0.0
19/11:00pm 7.3 4.6 7.3 100 0.0 E 11 15 6 8 1023.7 1023.7 0.0
19/10:30pm 7.3 5.0 7.3 100 0.0 ESE 9 13 5 7 1024.1 1024.1 0.0
19/10:00pm 7.5 5.2 7.5 100 0.0 ESE 9 11 5 6 1024.1 1024.1 0.0
19/09:30pm 8.0 5.5 8.0 100 0.0 ESE 11 13 6 7 1024.0 1024.0 0.0
19/09:00pm 8.7 5.9 8.7 100 0.0 ESE 13 17 7 9 1023.7 1023.7 0.0
19/08:30pm 8.7 7.1 8.6 99 0.0 SE 7 9 4 5 1023.9 1023.9 0.0
19/08:00pm 9.6 7.6 8.5 93 0.5 SE 9 15 5 8 1023.8 1023.8 0.0
19/07:30pm 11.5 9.1 8.5 82 1.5 SE 11 17 6 9 1023.1 1023.1 0.0
19/07:00pm 13.1 11.1 10.3 83 1.5 S 11 17 6 9 1022.9 1022.9 0.0
19/06:30pm 14.5 12.5 10.3 76 2.2 SSE 11 17 6 9 1022.6 1022.6 0.0
19/06:00pm 14.2 10.2 8.2 67 3.0 SE 19 28 10 15 1022.4 1022.4 0.0
19/05:30pm 15.4 11.5 8.6 64 3.5 SE 19 30 10 16 1022.0 1022.0 0.0
19/05:00pm 14.4 10.7 7.9 65 3.3 ESE 17 24 9 13 1021.9 1021.9 0.0
19/04:30pm 15.5 11.7 7.5 59 4.0 SE 17 26 9 14 1022.6 1022.6 0.0
19/04:00pm 14.8 10.8 6.6 58 4.0 SSE 17 26 9 14 1023.0 1023.0 0.0
19/03:30pm 15.8 12.5 6.5 54 4.6 SSE 13 19 7 10 1022.8 1022.8 0.0
19/03:00pm 15.8 13.0 7.1 56 4.3 SE 11 19 6 10 1022.9 1022.9 0.0
19/02:30pm 15.0 12.0 5.8 54 4.5 SE 11 22 6 12 1023.2 1023.2 0.0
19/02:00pm 14.1 10.0 6.0 58 3.9 SE 17 24 9 13 1023.3 1023.3 0.0
19/01:30pm 13.6 9.5 6.2 61 3.6 SE 17 26 9 14 1023.1 1023.1 0.0
19/01:00pm 14.9 11.0 7.2 60 3.8 SE 17 28 9 15 1023.3 1023.3 0.0
19/12:30pm 14.2 10.0 7.3 63 3.4 SSE 19 28 10 15 1023.7 1023.7 0.0
19/12:00pm 13.8 9.5 7.1 64 3.3 SSE 19 28 10 15 1023.9 1023.9 0.0
19/11:30am 12.8 8.4 6.6 66 3.0 SSE 19 26 10 14 1023.9 1023.9 0.0
19/11:00am 12.0 7.6 6.7 70 2.5 SE 19 26 10 14 1023.8 1023.8 0.0
19/10:30am 12.0 7.5 7.1 72 2.4 SE 20 28 11 15 1023.4 1023.4 0.0
19/10:00am 11.5 7.3 7.4 76 2.0 SE 19 26 10 14 1023.5 1023.5 0.0
19/09:30am 11.1 7.6 8.8 86 1.2 SE 17 24 9 13 1023.2 1023.2 0.0
19/09:00am 10.1 8.1 10.1 100 0.0 SSE 11 15 6 8 1023.2 1023.2 0.2
19/08:30am 9.7 7.6 9.7 100 0.0 SSW 11 15 6 8 1023.2 1023.2 0.2
19/08:00am 7.6 5.9 7.6 100 0.0 SSW 6 7 3 4 1023.0 1023.0 0.2
19/07:30am 6.9 4.9 6.9 100 0.0 SW 7 9 4 5 1022.6 1022.6 0.2

Other formats

Comma delimited format used in spreadsheet applications
http://www.bom.gov.au/fwo/IDV60801/IDV60801.95840.axf

JavaScript Object Notation format (JSON) in row-major order
http://www.bom.gov.au/fwo/IDV60801/IDV60801.95840.json

Data quality

Most of these data are generated automatically and are frequently updated. Quality checks on data are not normally performed. It is possible for incorrect values to appear. Refer to information at About Latest Weather Observations and please check the disclaimer before using these data.